This is the latest recevied weather packets stored in our database for station/object OE3WYC-1. If no packets are shown the sender has not sent any weather packets the latest 10 day(s).
| Time | Temp. | Humidity | Pressure | Rain* | Wind** | Luminosity | Snow |
|---|---|---|---|---|---|---|---|
| 1777638304 | 18.89° C | 39% | 1026.4 hPa | 0 mm | - | - | - |
| 1777635905 | 18.89° C | 40% | 1027.1 hPa | 0 mm | - | - | - |
| 1777634706 | 18.33° C | 40% | 1027.5 hPa | 0 mm | - | - | - |
| 1777632904 | 18.33° C | 40% | 1027.8 hPa | 0 mm | - | - | - |
| 1777632004 | 17.78° C | 40% | 1028 hPa | 0 mm | - | - | - |
| 1777630804 | 17.78° C | 40% | 1028.1 hPa | 0 mm | - | - | - |
| 1777630204 | 17.22° C | 40% | 1028.3 hPa | 0 mm | - | - | - |
| 1777628405 | 16.67° C | 40% | 1028.6 hPa | 0 mm | - | - | - |
| 1777627806 | 16.67° C | 41% | 1028.8 hPa | 0 mm | - | - | - |
| 1777627205 | 16.11° C | 41% | 1028.7 hPa | 0 mm | - | - | - |
| 1777621806 | 13.33° C | 44% | 1029.2 hPa | 0 mm | - | - | - |
| 1777620605 | 12.78° C | 46% | 1029 hPa | 0 mm | - | - | - |
| 1777619404 | 12.22° C | 47% | 1028.9 hPa | 0 mm | - | - | - |
| 1777619104 | 12.22° C | 48% | 1029 hPa | 0 mm | - | - | - |
| 1777614904 | 8.33° C | 60% | 1028.6 hPa | 0 mm | - | - | - |
| 1777614004 | 7.22° C | 64% | 1028.8 hPa | 0 mm | - | - | - |
| 1777613704 | 6.67° C | 65% | 1028.7 hPa | 0 mm | - | - | - |
| 1777612504 | 5.56° C | 66% | 1028.5 hPa | 0 mm | - | - | - |
| 1777612204 | 5° C | 67% | 1028.5 hPa | 0 mm | - | - | - |
| 1777611905 | 5° C | 67% | 1028.5 hPa | 0 mm | - | - | - |
| 1777610104 | 4.44° C | 67% | 1028.5 hPa | 0 mm | - | - | - |
| 1777609504 | 4.44° C | 67% | 1028.6 hPa | 0 mm | - | - | - |
| 1777608905 | 4.44° C | 66% | 1028.5 hPa | 0 mm | - | - | - |
| 1777605305 | 4.44° C | 64% | 1028.1 hPa | 0 mm | - | - | - |
| 1777603204 | 5° C | 62% | 1028.2 hPa | 0 mm | - | - | - |
* Rain latest hour (hover to see other rain measurements)
** Current wind speed in m/s (hover to see current wind gust speed)